sensor_id;sensor_type;location;lat;lon;timestamp;temperature;humidity
46217;DHT22;47258;59.424;13.482;2023-02-07T00:00:49;2.70;99.90
46217;DHT22;47258;59.424;13.482;2023-02-07T00:03:16;2.70;99.90
46217;DHT22;47258;59.424;13.482;2023-02-07T00:05:43;2.70;99.90
46217;DHT22;47258;59.424;13.482;2023-02-07T00:08:10;2.60;99.90
46217;DHT22;47258;59.424;13.482;2023-02-07T00:10:37;2.60;99.90
46217;DHT22;47258;59.424;13.482;2023-02-07T00:13:04;2.60;99.90
46217;DHT22;47258;59.424;13.482;2023-02-07T00:15:31;2.60;99.90
46217;DHT22;47258;59.424;13.482;2023-02-07T00:18:00;2.60;99.90
46217;DHT22;47258;59.424;13.482;2023-02-07T00:20:27;2.60;99.90
46217;DHT22;47258;59.424;13.482;2023-02-07T00:22:54;2.60;99.90
46217;DHT22;47258;59.424;13.482;2023-02-07T00:25:21;2.60;99.90
46217;DHT22;47258;59.424;13.482;2023-02-07T00:27:48;2.60;99.90
46217;DHT22;47258;59.424;13.482;2023-02-07T00:30:15;2.60;99.90
46217;DHT22;47258;59.424;13.482;2023-02-07T00:32:42;2.60;99.90
46217;DHT22;47258;59.424;13.482;2023-02-07T00:35:11;2.70;99.90
46217;DHT22;47258;59.424;13.482;2023-02-07T00:37:38;2.70;99.90
46217;DHT22;47258;59.424;13.482;2023-02-07T00:40:05;2.70;99.90
46217;DHT22;47258;59.424;13.482;2023-02-07T00:42:33;2.70;99.90
46217;DHT22;47258;59.424;13.482;2023-02-07T00:45:00;2.70;99.90
46217;DHT22;47258;59.424;13.482;2023-02-07T00:47:27;2.70;99.90
46217;DHT22;47258;59.424;13.482;2023-02-07T00:49:54;2.70;99.90
46217;DHT22;47258;59.424;13.482;2023-02-07T00:52:22;2.70;99.90
46217;DHT22;47258;59.424;13.482;2023-02-07T00:54:49;2.70;99.90
46217;DHT22;47258;59.424;13.482;2023-02-07T00:57:16;2.70;99.90
46217;DHT22;47258;59.424;13.482;2023-02-07T00:59:43;2.70;99.90
46217;DHT22;47258;59.424;13.482;2023-02-07T01:02:10;2.70;99.90
46217;DHT22;47258;59.424;13.482;2023-02-07T01:04:37;2.70;99.90
46217;DHT22;47258;59.424;13.482;2023-02-07T01:07:05;2.70;99.90
46217;DHT22;47258;59.424;13.482;2023-02-07T01:09:33;2.70;99.90
46217;DHT22;47258;59.424;13.482;2023-02-07T01:12:00;2.70;99.90
46217;DHT22;47258;59.424;13.482;2023-02-07T01:14:27;2.70;99.90
46217;DHT22;47258;59.424;13.482;2023-02-07T01:16:54;2.70;99.90
46217;DHT22;47258;59.424;13.482;2023-02-07T01:19:21;2.70;99.90
46217;DHT22;47258;59.424;13.482;2023-02-07T01:21:48;2.70;99.90
46217;DHT22;47258;59.424;13.482;2023-02-07T01:24:16;2.70;99.90
46217;DHT22;47258;59.424;13.482;2023-02-07T01:26:44;2.70;99.90
46217;DHT22;47258;59.424;13.482;2023-02-07T01:29:13;2.70;99.90
46217;DHT22;47258;59.424;13.482;2023-02-07T01:31:41;2.70;99.90
46217;DHT22;47258;59.424;13.482;2023-02-07T01:34:11;2.70;99.90
46217;DHT22;47258;59.424;13.482;2023-02-07T01:36:39;2.70;99.90
46217;DHT22;47258;59.424;13.482;2023-02-07T01:39:06;2.80;99.90
46217;DHT22;47258;59.424;13.482;2023-02-07T01:41:33;2.80;99.90
46217;DHT22;47258;59.424;13.482;2023-02-07T01:44:04;2.80;99.90
46217;DHT22;47258;59.424;13.482;2023-02-07T01:46:33;2.80;99.90
46217;DHT22;47258;59.424;13.482;2023-02-07T01:49:03;2.80;99.90
46217;DHT22;47258;59.424;13.482;2023-02-07T01:51:32;2.70;99.90
46217;DHT22;47258;59.424;13.482;2023-02-07T01:54:03;2.70;99.90
46217;DHT22;47258;59.424;13.482;2023-02-07T01:56:32;2.70;99.90
46217;DHT22;47258;59.424;13.482;2023-02-07T01:59:00;2.70;99.90
46217;DHT22;47258;59.424;13.482;2023-02-07T02:01:29;2.70;99.90
46217;DHT22;47258;59.424;13.482;2023-02-07T02:03:56;2.70;99.90
46217;DHT22;47258;59.424;13.482;2023-02-07T02:06:26;2.80;99.90
46217;DHT22;47258;59.424;13.482;2023-02-07T02:08:57;2.80;99.90
46217;DHT22;47258;59.424;13.482;2023-02-07T02:12:03;2.80;99.90
46217;DHT22;47258;59.424;13.482;2023-02-07T02:14:52;2.80;99.90
46217;DHT22;47258;59.424;13.482;2023-02-07T02:17:24;2.80;99.90
46217;DHT22;47258;59.424;13.482;2023-02-07T02:23:09;2.70;99.90
46217;DHT22;47258;59.424;13.482;2023-02-07T02:32:19;2.70;99.90
46217;DHT22;47258;59.424;13.482;2023-02-07T02:34:58;2.70;99.90
46217;DHT22;47258;59.424;13.482;2023-02-07T02:37:34;2.70;99.90
46217;DHT22;47258;59.424;13.482;2023-02-07T02:40:06;2.70;99.90
46217;DHT22;47258;59.424;13.482;2023-02-07T02:42:38;2.70;99.90
46217;DHT22;47258;59.424;13.482;2023-02-07T02:45:11;2.70;99.90
46217;DHT22;47258;59.424;13.482;2023-02-07T02:47:41;2.70;99.90
46217;DHT22;47258;59.424;13.482;2023-02-07T02:50:14;2.70;99.90
46217;DHT22;47258;59.424;13.482;2023-02-07T02:52:43;2.70;99.90
46217;DHT22;47258;59.424;13.482;2023-02-07T02:55:11;2.70;99.90
46217;DHT22;47258;59.424;13.482;2023-02-07T02:57:52;2.70;99.90
46217;DHT22;47258;59.424;13.482;2023-02-07T03:00:36;2.70;99.90
46217;DHT22;47258;59.424;13.482;2023-02-07T03:03:39;2.70;99.90
46217;DHT22;47258;59.424;13.482;2023-02-07T03:06:20;2.70;99.90
46217;DHT22;47258;59.424;13.482;2023-02-07T03:08:56;2.70;99.90
46217;DHT22;47258;59.424;13.482;2023-02-07T03:11:24;2.80;99.90
46217;DHT22;47258;59.424;13.482;2023-02-07T03:13:58;2.70;99.90
46217;DHT22;47258;59.424;13.482;2023-02-07T03:16:30;2.80;99.90
46217;DHT22;47258;59.424;13.482;2023-02-07T03:19:03;2.70;99.90
46217;DHT22;47258;59.424;13.482;2023-02-07T03:21:37;2.70;99.90
46217;DHT22;47258;59.424;13.482;2023-02-07T03:24:07;2.80;99.90
46217;DHT22;47258;59.424;13.482;2023-02-07T03:26:37;2.80;99.90
46217;DHT22;47258;59.424;13.482;2023-02-07T03:29:05;2.80;99.90
46217;DHT22;47258;59.424;13.482;2023-02-07T03:31:34;2.70;99.90
46217;DHT22;47258;59.424;13.482;2023-02-07T03:34:07;2.70;99.90
46217;DHT22;47258;59.424;13.482;2023-02-07T03:36:41;2.70;99.90
46217;DHT22;47258;59.424;13.482;2023-02-07T03:39:09;2.70;99.90
46217;DHT22;47258;59.424;13.482;2023-02-07T03:41:40;2.70;99.90
46217;DHT22;47258;59.424;13.482;2023-02-07T03:44:09;2.70;99.90
46217;DHT22;47258;59.424;13.482;2023-02-07T03:46:38;2.70;99.90
46217;DHT22;47258;59.424;13.482;2023-02-07T03:49:05;2.70;99.90
46217;DHT22;47258;59.424;13.482;2023-02-07T03:51:33;2.70;99.90
46217;DHT22;47258;59.424;13.482;2023-02-07T03:54:02;2.70;99.90
46217;DHT22;47258;59.424;13.482;2023-02-07T03:56:29;2.70;99.90
46217;DHT22;47258;59.424;13.482;2023-02-07T03:58:56;2.60;99.90
46217;DHT22;47258;59.424;13.482;2023-02-07T04:01:23;2.70;99.90
46217;DHT22;47258;59.424;13.482;2023-02-07T04:03:50;2.70;99.90
46217;DHT22;47258;59.424;13.482;2023-02-07T04:06:17;2.70;99.90
46217;DHT22;47258;59.424;13.482;2023-02-07T04:08:44;2.80;99.90
46217;DHT22;47258;59.424;13.482;2023-02-07T04:11:14;2.80;99.90
46217;DHT22;47258;59.424;13.482;2023-02-07T04:13:41;2.70;99.90
46217;DHT22;47258;59.424;13.482;2023-02-07T04:16:08;2.70;99.90
46217;DHT22;47258;59.424;13.482;2023-02-07T04:18:35;2.70;99.90
46217;DHT22;47258;59.424;13.482;2023-02-07T04:21:03;2.80;99.90
46217;DHT22;47258;59.424;13.482;2023-02-07T04:23:31;2.80;99.90
46217;DHT22;47258;59.424;13.482;2023-02-07T04:25:59;2.80;99.90
46217;DHT22;47258;59.424;13.482;2023-02-07T04:28:28;2.80;99.90
46217;DHT22;47258;59.424;13.482;2023-02-07T04:30:55;2.80;99.90
46217;DHT22;47258;59.424;13.482;2023-02-07T04:33:22;2.80;99.90
46217;DHT22;47258;59.424;13.482;2023-02-07T04:35:53;2.80;99.90
46217;DHT22;47258;59.424;13.482;2023-02-07T04:38:21;2.90;99.90
46217;DHT22;47258;59.424;13.482;2023-02-07T04:40:48;2.80;99.90
46217;DHT22;47258;59.424;13.482;2023-02-07T04:43:15;2.80;99.90
46217;DHT22;47258;59.424;13.482;2023-02-07T04:45:45;2.90;99.90
46217;DHT22;47258;59.424;13.482;2023-02-07T04:48:12;2.90;99.90
46217;DHT22;47258;59.424;13.482;2023-02-07T04:50:40;2.90;99.90
46217;DHT22;47258;59.424;13.482;2023-02-07T04:53:07;2.90;99.90
46217;DHT22;47258;59.424;13.482;2023-02-07T04:55:34;2.90;99.90
46217;DHT22;47258;59.424;13.482;2023-02-07T04:58:02;2.90;99.90
46217;DHT22;47258;59.424;13.482;2023-02-07T05:00:29;2.90;99.90
46217;DHT22;47258;59.424;13.482;2023-02-07T05:02:57;2.90;99.90
46217;DHT22;47258;59.424;13.482;2023-02-07T05:05:25;3.00;99.90
46217;DHT22;47258;59.424;13.482;2023-02-07T05:07:52;3.00;99.90
46217;DHT22;47258;59.424;13.482;2023-02-07T05:10:19;2.90;99.90
46217;DHT22;47258;59.424;13.482;2023-02-07T05:12:46;2.90;99.90
46217;DHT22;47258;59.424;13.482;2023-02-07T05:15:13;2.90;99.90
46217;DHT22;47258;59.424;13.482;2023-02-07T05:17:40;2.90;99.90
46217;DHT22;47258;59.424;13.482;2023-02-07T05:20:10;2.90;99.90
46217;DHT22;47258;59.424;13.482;2023-02-07T05:22:37;2.90;99.90
46217;DHT22;47258;59.424;13.482;2023-02-07T05:25:04;2.90;99.90
46217;DHT22;47258;59.424;13.482;2023-02-07T05:27:31;2.80;99.90
46217;DHT22;47258;59.424;13.482;2023-02-07T05:29:58;2.90;99.90
46217;DHT22;47258;59.424;13.482;2023-02-07T05:32:26;2.80;99.90
46217;DHT22;47258;59.424;13.482;2023-02-07T05:35:11;2.80;99.90
46217;DHT22;47258;59.424;13.482;2023-02-07T05:37:38;2.80;99.90
46217;DHT22;47258;59.424;13.482;2023-02-07T05:40:06;2.80;99.90
46217;DHT22;47258;59.424;13.482;2023-02-07T05:42:33;2.80;99.90
46217;DHT22;47258;59.424;13.482;2023-02-07T05:45:00;2.90;99.90
46217;DHT22;47258;59.424;13.482;2023-02-07T05:47:27;2.90;99.90
46217;DHT22;47258;59.424;13.482;2023-02-07T05:49:54;2.90;99.90
46217;DHT22;47258;59.424;13.482;2023-02-07T05:52:23;2.90;99.90
46217;DHT22;47258;59.424;13.482;2023-02-07T05:54:50;3.00;99.90
46217;DHT22;47258;59.424;13.482;2023-02-07T05:57:17;3.00;99.90
46217;DHT22;47258;59.424;13.482;2023-02-07T05:59:44;3.00;99.90
46217;DHT22;47258;59.424;13.482;2023-02-07T06:02:11;3.00;99.90
46217;DHT22;47258;59.424;13.482;2023-02-07T06:04:38;3.00;99.90
46217;DHT22;47258;59.424;13.482;2023-02-07T06:07:05;3.00;99.90
46217;DHT22;47258;59.424;13.482;2023-02-07T06:09:34;3.10;99.90
46217;DHT22;47258;59.424;13.482;2023-02-07T06:12:01;3.10;99.90
46217;DHT22;47258;59.424;13.482;2023-02-07T06:14:28;3.10;99.90
46217;DHT22;47258;59.424;13.482;2023-02-07T06:16:55;3.10;99.90
46217;DHT22;47258;59.424;13.482;2023-02-07T06:19:22;3.10;99.90
46217;DHT22;47258;59.424;13.482;2023-02-07T06:21:49;3.10;99.90
46217;DHT22;47258;59.424;13.482;2023-02-07T06:24:16;3.10;99.90
46217;DHT22;47258;59.424;13.482;2023-02-07T06:26:44;3.00;99.90
46217;DHT22;47258;59.424;13.482;2023-02-07T06:29:12;3.10;99.90
46217;DHT22;47258;59.424;13.482;2023-02-07T06:31:39;3.10;99.90
46217;DHT22;47258;59.424;13.482;2023-02-07T06:34:06;3.10;99.90
46217;DHT22;47258;59.424;13.482;2023-02-07T06:36:33;3.10;99.90
46217;DHT22;47258;59.424;13.482;2023-02-07T06:39:00;3.10;99.90
46217;DHT22;47258;59.424;13.482;2023-02-07T06:41:28;3.10;99.90
46217;DHT22;47258;59.424;13.482;2023-02-07T06:43:56;3.10;99.90
46217;DHT22;47258;59.424;13.482;2023-02-07T06:46:23;3.10;99.90
46217;DHT22;47258;59.424;13.482;2023-02-07T06:48:50;3.10;99.90
46217;DHT22;47258;59.424;13.482;2023-02-07T06:51:17;3.10;99.90
46217;DHT22;47258;59.424;13.482;2023-02-07T06:53:44;3.10;99.90
46217;DHT22;47258;59.424;13.482;2023-02-07T06:56:12;3.10;99.90
46217;DHT22;47258;59.424;13.482;2023-02-07T06:58:40;3.10;99.90
46217;DHT22;47258;59.424;13.482;2023-02-07T07:01:08;3.10;99.90
46217;DHT22;47258;59.424;13.482;2023-02-07T07:03:35;3.10;99.90
46217;DHT22;47258;59.424;13.482;2023-02-07T07:06:02;3.20;99.90
46217;DHT22;47258;59.424;13.482;2023-02-07T07:08:29;3.20;99.90
46217;DHT22;47258;59.424;13.482;2023-02-07T07:10:56;3.20;99.90
46217;DHT22;47258;59.424;13.482;2023-02-07T07:13:23;3.30;99.90
46217;DHT22;47258;59.424;13.482;2023-02-07T07:15:50;3.30;99.90
46217;DHT22;47258;59.424;13.482;2023-02-07T07:18:19;3.30;99.90
46217;DHT22;47258;59.424;13.482;2023-02-07T07:20:51;3.30;99.90
46217;DHT22;47258;59.424;13.482;2023-02-07T07:23:18;3.30;99.90
46217;DHT22;47258;59.424;13.482;2023-02-07T07:25:45;3.30;99.90
46217;DHT22;47258;59.424;13.482;2023-02-07T07:28:12;3.30;99.90
46217;DHT22;47258;59.424;13.482;2023-02-07T07:30:39;3.40;99.90
46217;DHT22;47258;59.424;13.482;2023-02-07T07:33:06;3.40;99.90
46217;DHT22;47258;59.424;13.482;2023-02-07T07:35:35;3.40;99.90
46217;DHT22;47258;59.424;13.482;2023-02-07T07:38:02;3.40;99.90
46217;DHT22;47258;59.424;13.482;2023-02-07T07:40:29;3.40;99.90
46217;DHT22;47258;59.424;13.482;2023-02-07T07:42:56;3.50;99.90
46217;DHT22;47258;59.424;13.482;2023-02-07T07:45:23;3.50;99.90
46217;DHT22;47258;59.424;13.482;2023-02-07T07:47:50;3.50;99.90
46217;DHT22;47258;59.424;13.482;2023-02-07T07:50:17;3.50;99.90
46217;DHT22;47258;59.424;13.482;2023-02-07T07:52:46;3.50;99.90
46217;DHT22;47258;59.424;13.482;2023-02-07T07:55:13;3.50;99.90
46217;DHT22;47258;59.424;13.482;2023-02-07T07:57:41;3.50;99.90
46217;DHT22;47258;59.424;13.482;2023-02-07T08:00:09;3.50;99.90
46217;DHT22;47258;59.424;13.482;2023-02-07T08:02:36;3.50;99.90
46217;DHT22;47258;59.424;13.482;2023-02-07T08:05:03;3.60;99.90
46217;DHT22;47258;59.424;13.482;2023-02-07T08:07:31;3.60;99.90
46217;DHT22;47258;59.424;13.482;2023-02-07T08:09:59;3.60;99.90
46217;DHT22;47258;59.424;13.482;2023-02-07T08:12:26;3.60;99.90
46217;DHT22;47258;59.424;13.482;2023-02-07T08:14:53;3.60;99.90
46217;DHT22;47258;59.424;13.482;2023-02-07T08:17:20;3.60;99.90
46217;DHT22;47258;59.424;13.482;2023-02-07T08:19:47;3.70;99.90
46217;DHT22;47258;59.424;13.482;2023-02-07T08:22:14;3.70;99.90
46217;DHT22;47258;59.424;13.482;2023-02-07T08:24:41;3.70;99.90
46217;DHT22;47258;59.424;13.482;2023-02-07T08:27:10;3.70;99.90
46217;DHT22;47258;59.424;13.482;2023-02-07T08:29:37;3.80;99.90
46217;DHT22;47258;59.424;13.482;2023-02-07T08:32:04;3.80;99.90
46217;DHT22;47258;59.424;13.482;2023-02-07T08:34:31;3.90;99.90
46217;DHT22;47258;59.424;13.482;2023-02-07T08:37:03;3.90;99.90
46217;DHT22;47258;59.424;13.482;2023-02-07T08:39:30;3.90;99.90
46217;DHT22;47258;59.424;13.482;2023-02-07T08:41:57;3.90;99.90
46217;DHT22;47258;59.424;13.482;2023-02-07T08:44:26;3.90;99.90
46217;DHT22;47258;59.424;13.482;2023-02-07T08:46:53;3.90;99.90
46217;DHT22;47258;59.424;13.482;2023-02-07T08:49:20;3.80;99.90
46217;DHT22;47258;59.424;13.482;2023-02-07T08:51:47;3.80;99.90
46217;DHT22;47258;59.424;13.482;2023-02-07T08:54:15;3.80;99.90
46217;DHT22;47258;59.424;13.482;2023-02-07T08:56:42;3.80;99.90
46217;DHT22;47258;59.424;13.482;2023-02-07T08:59:09;3.80;99.90
46217;DHT22;47258;59.424;13.482;2023-02-07T09:01:37;3.80;99.90
46217;DHT22;47258;59.424;13.482;2023-02-07T09:04:04;3.90;99.90
46217;DHT22;47258;59.424;13.482;2023-02-07T09:06:31;3.90;99.90
46217;DHT22;47258;59.424;13.482;2023-02-07T09:08:59;3.90;99.90
46217;DHT22;47258;59.424;13.482;2023-02-07T09:11:26;3.90;99.90
46217;DHT22;47258;59.424;13.482;2023-02-07T09:13:53;3.90;99.90
46217;DHT22;47258;59.424;13.482;2023-02-07T09:16:20;3.90;99.90
46217;DHT22;47258;59.424;13.482;2023-02-07T09:18:50;3.90;99.90
46217;DHT22;47258;59.424;13.482;2023-02-07T09:21:17;3.90;99.90
46217;DHT22;47258;59.424;13.482;2023-02-07T09:23:45;3.90;99.90
46217;DHT22;47258;59.424;13.482;2023-02-07T09:26:17;3.90;99.90
46217;DHT22;47258;59.424;13.482;2023-02-07T09:28:44;4.00;99.90
46217;DHT22;47258;59.424;13.482;2023-02-07T09:31:13;4.00;99.90
46217;DHT22;47258;59.424;13.482;2023-02-07T09:33:41;4.00;99.90
46217;DHT22;47258;59.424;13.482;2023-02-07T09:36:17;4.00;99.90
46217;DHT22;47258;59.424;13.482;2023-02-07T09:38:44;4.00;99.90
46217;DHT22;47258;59.424;13.482;2023-02-07T09:41:18;4.10;99.90
46217;DHT22;47258;59.424;13.482;2023-02-07T09:43:55;4.10;99.90
46217;DHT22;47258;59.424;13.482;2023-02-07T09:46:30;4.10;99.90
46217;DHT22;47258;59.424;13.482;2023-02-07T09:49:03;4.20;99.90
46217;DHT22;47258;59.424;13.482;2023-02-07T09:51:33;4.40;99.90
46217;DHT22;47258;59.424;13.482;2023-02-07T09:54:02;4.40;99.90
46217;DHT22;47258;59.424;13.482;2023-02-07T09:56:32;4.40;99.90
46217;DHT22;47258;59.424;13.482;2023-02-07T09:59:04;4.40;99.90
46217;DHT22;47258;59.424;13.482;2023-02-07T10:01:35;4.40;99.90
46217;DHT22;47258;59.424;13.482;2023-02-07T10:04:14;4.50;99.90
46217;DHT22;47258;59.424;13.482;2023-02-07T10:06:51;4.50;99.90
46217;DHT22;47258;59.424;13.482;2023-02-07T10:09:27;4.50;99.90
46217;DHT22;47258;59.424;13.482;2023-02-07T10:12:01;4.60;99.90
46217;DHT22;47258;59.424;13.482;2023-02-07T10:14:46;4.60;99.90
46217;DHT22;47258;59.424;13.482;2023-02-07T10:17:29;4.60;99.90
46217;DHT22;47258;59.424;13.482;2023-02-07T10:20:11;4.70;99.90
46217;DHT22;47258;59.424;13.482;2023-02-07T10:22:49;4.70;99.90
46217;DHT22;47258;59.424;13.482;2023-02-07T10:25:27;4.70;99.90
46217;DHT22;47258;59.424;13.482;2023-02-07T10:28:10;4.80;99.90
46217;DHT22;47258;59.424;13.482;2023-02-07T10:30:47;4.90;99.90
46217;DHT22;47258;59.424;13.482;2023-02-07T10:33:18;4.90;99.90
46217;DHT22;47258;59.424;13.482;2023-02-07T10:35:46;5.00;99.90
46217;DHT22;47258;59.424;13.482;2023-02-07T10:38:21;5.10;99.90
46217;DHT22;47258;59.424;13.482;2023-02-07T10:40:52;5.20;99.90
46217;DHT22;47258;59.424;13.482;2023-02-07T10:43:27;5.20;99.90
46217;DHT22;47258;59.424;13.482;2023-02-07T10:45:57;5.40;99.90
46217;DHT22;47258;59.424;13.482;2023-02-07T10:48:25;5.60;99.90
46217;DHT22;47258;59.424;13.482;2023-02-07T10:50:55;5.80;99.90
46217;DHT22;47258;59.424;13.482;2023-02-07T10:53:42;6.20;99.90
46217;DHT22;47258;59.424;13.482;2023-02-07T10:56:14;6.80;99.90
46217;DHT22;47258;59.424;13.482;2023-02-07T10:58:42;7.30;99.90
46217;DHT22;47258;59.424;13.482;2023-02-07T11:01:17;7.70;99.90
46217;DHT22;47258;59.424;13.482;2023-02-07T11:03:45;8.10;99.90
46217;DHT22;47258;59.424;13.482;2023-02-07T11:06:13;8.30;99.90
46217;DHT22;47258;59.424;13.482;2023-02-07T11:08:42;8.40;99.90
46217;DHT22;47258;59.424;13.482;2023-02-07T11:11:26;8.20;99.90
46217;DHT22;47258;59.424;13.482;2023-02-07T11:14:01;8.00;99.90
46217;DHT22;47258;59.424;13.482;2023-02-07T11:16:28;7.80;99.90
46217;DHT22;47258;59.424;13.482;2023-02-07T11:18:57;7.60;99.90
46217;DHT22;47258;59.424;13.482;2023-02-07T11:21:28;7.40;99.90
46217;DHT22;47258;59.424;13.482;2023-02-07T11:23:59;7.30;99.90
46217;DHT22;47258;59.424;13.482;2023-02-07T11:26:28;7.20;99.90
46217;DHT22;47258;59.424;13.482;2023-02-07T11:29:04;7.10;99.90
46217;DHT22;47258;59.424;13.482;2023-02-07T11:31:33;7.10;99.90
46217;DHT22;47258;59.424;13.482;2023-02-07T11:34:09;7.10;99.90
46217;DHT22;47258;59.424;13.482;2023-02-07T11:36:36;7.00;99.90
46217;DHT22;47258;59.424;13.482;2023-02-07T11:39:15;6.90;99.90
46217;DHT22;47258;59.424;13.482;2023-02-07T11:41:52;6.80;99.90
46217;DHT22;47258;59.424;13.482;2023-02-07T11:44:23;6.80;99.90
46217;DHT22;47258;59.424;13.482;2023-02-07T11:46:53;6.70;99.90
46217;DHT22;47258;59.424;13.482;2023-02-07T11:49:25;6.70;99.90
46217;DHT22;47258;59.424;13.482;2023-02-07T11:51:55;6.60;99.90
46217;DHT22;47258;59.424;13.482;2023-02-07T11:54:25;6.50;99.90
46217;DHT22;47258;59.424;13.482;2023-02-07T11:56:59;6.50;99.90
46217;DHT22;47258;59.424;13.482;2023-02-07T11:59:27;6.50;99.90
46217;DHT22;47258;59.424;13.482;2023-02-07T12:01:56;6.40;99.90
46217;DHT22;47258;59.424;13.482;2023-02-07T12:04:26;6.30;99.90
46217;DHT22;47258;59.424;13.482;2023-02-07T12:06:57;6.20;99.90
46217;DHT22;47258;59.424;13.482;2023-02-07T12:09:33;6.10;99.90
46217;DHT22;47258;59.424;13.482;2023-02-07T12:12:04;6.00;99.90
46217;DHT22;47258;59.424;13.482;2023-02-07T12:14:39;6.00;99.90
46217;DHT22;47258;59.424;13.482;2023-02-07T12:17:15;5.90;99.90
46217;DHT22;47258;59.424;13.482;2023-02-07T12:19:50;5.90;99.90
46217;DHT22;47258;59.424;13.482;2023-02-07T12:22:21;5.90;99.90
46217;DHT22;47258;59.424;13.482;2023-02-07T12:24:52;5.90;99.90
46217;DHT22;47258;59.424;13.482;2023-02-07T12:27:25;6.00;99.90
46217;DHT22;47258;59.424;13.482;2023-02-07T12:30:00;6.00;99.90
46217;DHT22;47258;59.424;13.482;2023-02-07T12:32:36;6.10;99.90
46217;DHT22;47258;59.424;13.482;2023-02-07T12:35:14;6.20;99.90
46217;DHT22;47258;59.424;13.482;2023-02-07T12:37:48;6.20;99.90
46217;DHT22;47258;59.424;13.482;2023-02-07T12:40:27;6.20;99.90
46217;DHT22;47258;59.424;13.482;2023-02-07T12:42:57;6.20;99.90
46217;DHT22;47258;59.424;13.482;2023-02-07T12:45:38;6.30;99.90
46217;DHT22;47258;59.424;13.482;2023-02-07T12:48:11;6.30;99.90
46217;DHT22;47258;59.424;13.482;2023-02-07T12:51:02;6.30;99.90
46217;DHT22;47258;59.424;13.482;2023-02-07T12:53:39;6.30;99.90
46217;DHT22;47258;59.424;13.482;2023-02-07T12:56:22;6.30;99.90
46217;DHT22;47258;59.424;13.482;2023-02-07T12:58:58;6.20;99.90
46217;DHT22;47258;59.424;13.482;2023-02-07T13:01:31;6.20;99.90
46217;DHT22;47258;59.424;13.482;2023-02-07T13:07:12;6.20;99.90
46217;DHT22;47258;59.424;13.482;2023-02-07T13:09:46;6.10;99.90
46217;DHT22;47258;59.424;13.482;2023-02-07T13:12:20;6.10;99.90
46217;DHT22;47258;59.424;13.482;2023-02-07T13:14:59;6.10;99.90
46217;DHT22;47258;59.424;13.482;2023-02-07T13:17:37;6.10;99.90
46217;DHT22;47258;59.424;13.482;2023-02-07T13:20:15;6.10;99.90
46217;DHT22;47258;59.424;13.482;2023-02-07T13:22:49;6.10;99.90
46217;DHT22;47258;59.424;13.482;2023-02-07T13:25:21;6.10;99.90
46217;DHT22;47258;59.424;13.482;2023-02-07T13:27:52;6.10;99.90
46217;DHT22;47258;59.424;13.482;2023-02-07T13:30:20;6.10;99.90
46217;DHT22;47258;59.424;13.482;2023-02-07T13:32:49;6.10;99.90
46217;DHT22;47258;59.424;13.482;2023-02-07T13:35:20;6.10;99.90
46217;DHT22;47258;59.424;13.482;2023-02-07T13:37:51;6.10;99.90
46217;DHT22;47258;59.424;13.482;2023-02-07T13:40:31;6.00;99.90
46217;DHT22;47258;59.424;13.482;2023-02-07T13:43:05;6.00;99.90
46217;DHT22;47258;59.424;13.482;2023-02-07T13:45:39;6.00;99.90
46217;DHT22;47258;59.424;13.482;2023-02-07T13:48:16;6.00;99.90
46217;DHT22;47258;59.424;13.482;2023-02-07T13:50:57;5.90;99.90
46217;DHT22;47258;59.424;13.482;2023-02-07T13:53:43;5.90;99.90
46217;DHT22;47258;59.424;13.482;2023-02-07T13:56:12;5.90;99.90
46217;DHT22;47258;59.424;13.482;2023-02-07T13:58:55;5.80;99.90
46217;DHT22;47258;59.424;13.482;2023-02-07T14:01:48;5.90;99.90
46217;DHT22;47258;59.424;13.482;2023-02-07T14:04:16;5.80;99.90
46217;DHT22;47258;59.424;13.482;2023-02-07T14:06:54;5.80;99.90
46217;DHT22;47258;59.424;13.482;2023-02-07T14:09:26;5.80;99.90
46217;DHT22;47258;59.424;13.482;2023-02-07T14:11:59;5.80;99.90
46217;DHT22;47258;59.424;13.482;2023-02-07T14:14:30;5.70;99.90
46217;DHT22;47258;59.424;13.482;2023-02-07T14:16:59;5.70;99.90
46217;DHT22;47258;59.424;13.482;2023-02-07T14:19:47;5.70;99.90
46217;DHT22;47258;59.424;13.482;2023-02-07T14:22:16;5.70;99.90
46217;DHT22;47258;59.424;13.482;2023-02-07T14:24:49;5.70;99.90
46217;DHT22;47258;59.424;13.482;2023-02-07T14:27:26;5.70;99.90
46217;DHT22;47258;59.424;13.482;2023-02-07T14:30:16;5.60;99.90
46217;DHT22;47258;59.424;13.482;2023-02-07T14:32:44;5.60;99.90
46217;DHT22;47258;59.424;13.482;2023-02-07T14:35:45;5.50;99.90
46217;DHT22;47258;59.424;13.482;2023-02-07T14:38:29;5.40;99.90
46217;DHT22;47258;59.424;13.482;2023-02-07T14:41:02;5.40;99.90
46217;DHT22;47258;59.424;13.482;2023-02-07T14:43:35;5.30;99.90
46217;DHT22;47258;59.424;13.482;2023-02-07T14:46:10;5.30;99.90
46217;DHT22;47258;59.424;13.482;2023-02-07T14:48:46;5.30;99.90
46217;DHT22;47258;59.424;13.482;2023-02-07T14:51:18;5.30;99.90
46217;DHT22;47258;59.424;13.482;2023-02-07T14:53:55;5.30;99.90
46217;DHT22;47258;59.424;13.482;2023-02-07T14:56:36;5.30;99.90
46217;DHT22;47258;59.424;13.482;2023-02-07T14:59:08;5.30;99.90
46217;DHT22;47258;59.424;13.482;2023-02-07T15:01:37;5.30;99.90
46217;DHT22;47258;59.424;13.482;2023-02-07T15:04:07;5.30;99.90
46217;DHT22;47258;59.424;13.482;2023-02-07T15:06:38;5.30;99.90
46217;DHT22;47258;59.424;13.482;2023-02-07T15:09:05;5.30;99.90
46217;DHT22;47258;59.424;13.482;2023-02-07T15:11:42;5.20;99.90
46217;DHT22;47258;59.424;13.482;2023-02-07T15:14:18;5.20;99.90
46217;DHT22;47258;59.424;13.482;2023-02-07T15:16:48;5.20;99.90
46217;DHT22;47258;59.424;13.482;2023-02-07T15:19:20;5.20;99.90
46217;DHT22;47258;59.424;13.482;2023-02-07T15:21:48;5.20;99.90
46217;DHT22;47258;59.424;13.482;2023-02-07T15:24:19;5.20;99.90
46217;DHT22;47258;59.424;13.482;2023-02-07T15:26:49;5.20;99.90
46217;DHT22;47258;59.424;13.482;2023-02-07T15:29:20;5.20;99.90
46217;DHT22;47258;59.424;13.482;2023-02-07T15:31:49;5.20;99.90
46217;DHT22;47258;59.424;13.482;2023-02-07T15:34:19;5.10;99.90
46217;DHT22;47258;59.424;13.482;2023-02-07T15:36:48;5.10;99.90
46217;DHT22;47258;59.424;13.482;2023-02-07T15:39:17;5.10;99.90
46217;DHT22;47258;59.424;13.482;2023-02-07T15:41:45;5.10;99.90
46217;DHT22;47258;59.424;13.482;2023-02-07T15:44:20;5.10;99.90
46217;DHT22;47258;59.424;13.482;2023-02-07T15:46:51;5.10;99.90
46217;DHT22;47258;59.424;13.482;2023-02-07T15:49:36;5.10;99.90
46217;DHT22;47258;59.424;13.482;2023-02-07T15:52:11;5.10;99.90
46217;DHT22;47258;59.424;13.482;2023-02-07T15:54:43;5.10;99.90
46217;DHT22;47258;59.424;13.482;2023-02-07T15:57:12;5.00;99.90
46217;DHT22;47258;59.424;13.482;2023-02-07T15:59:44;5.00;99.90
46217;DHT22;47258;59.424;13.482;2023-02-07T16:02:24;5.00;99.90
46217;DHT22;47258;59.424;13.482;2023-02-07T16:04:54;5.00;99.90